createdAt,value
2023-02-22T00:00:50.117Z,106.13
2023-02-22T00:03:24.948Z,180.55
2023-02-22T00:05:58.282Z,120.63
2023-02-22T00:08:30.356Z,104.03
2023-02-22T00:10:58.521Z,95.28
2023-02-22T00:13:29.568Z,103.38
2023-02-22T00:15:58.096Z,99.18
2023-02-22T00:18:27.969Z,80.72
2023-02-22T00:20:59.837Z,87.82
2023-02-22T00:23:30.122Z,113.32
2023-02-22T00:25:59.513Z,107.85
2023-02-22T00:28:30.642Z,102.78
2023-02-22T00:30:59.871Z,106.72
2023-02-22T00:33:27.951Z,96.80
2023-02-22T00:35:55.798Z,115.38
2023-02-22T00:38:23.961Z,115.68
2023-02-22T00:40:52.437Z,113.00
2023-02-22T00:43:20.344Z,96.80
2023-02-22T00:45:50.420Z,86.40
2023-02-22T00:48:19.519Z,83.05
2023-02-22T00:50:49.236Z,90.57
2023-02-22T00:53:17.747Z,110.55
2023-02-22T00:55:45.647Z,80.00
2023-02-22T00:58:13.667Z,83.78
2023-02-22T01:00:43.741Z,88.03
2023-02-22T01:03:15.018Z,88.15
2023-02-22T01:05:43.933Z,84.10
2023-02-22T01:08:13.604Z,72.85
2023-02-22T01:10:41.688Z,77.68
2023-02-22T01:13:12.225Z,65.45
2023-02-22T01:15:41.850Z,73.38
2023-02-22T01:18:12.594Z,69.75
2023-02-22T01:20:40.701Z,68.15
2023-02-22T01:23:10.621Z,66.82
2023-02-22T01:25:38.803Z,63.38
2023-02-22T01:28:09.873Z,62.58
2023-02-22T01:30:38.321Z,50.97
2023-02-22T01:33:08.564Z,64.75
2023-02-22T01:35:40.802Z,54.42
2023-02-22T01:38:09.552Z,49.05
2023-02-22T01:40:39.683Z,52.95
2023-02-22T01:43:20.126Z,40.95
2023-02-22T01:45:58.268Z,47.90
2023-02-22T01:48:35.680Z,39.75
2023-02-22T01:51:10.774Z,40.03
2023-02-22T01:53:46.065Z,41.50
2023-02-22T01:56:16.166Z,39.72
2023-02-22T01:58:50.612Z,38.70
2023-02-22T02:01:21.392Z,40.58
2023-02-22T02:03:50.494Z,46.47
2023-02-22T02:06:20.559Z,33.60
2023-02-22T02:08:56.054Z,39.85
2023-02-22T02:11:25.977Z,44.88
2023-02-22T02:13:57.162Z,36.90
2023-02-22T02:16:27.506Z,38.50
2023-02-22T02:18:55.974Z,39.45
2023-02-22T02:21:49.841Z,35.60
2023-02-22T02:25:05.065Z,35.20
2023-02-22T02:27:48.618Z,44.35
2023-02-22T02:30:46.982Z,39.65
2023-02-22T02:33:22.114Z,40.88
2023-02-22T02:35:58.663Z,40.15
2023-02-22T02:38:35.273Z,37.90
2023-02-22T02:41:10.745Z,42.40
2023-02-22T02:43:43.867Z,37.53
2023-02-22T02:46:16.724Z,35.95
2023-02-22T02:48:54.701Z,38.03
2023-02-22T02:51:28.718Z,31.90
2023-02-22T02:53:57.777Z,38.38
2023-02-22T02:56:25.905Z,35.55
2023-02-22T02:58:55.625Z,35.13
2023-02-22T03:01:40.854Z,33.80
2023-02-22T03:04:24.468Z,33.85
2023-02-22T03:07:08.731Z,33.25
2023-02-22T03:09:49.057Z,28.73
2023-02-22T03:12:29.263Z,33.40
2023-02-22T03:15:09.858Z,30.77
2023-02-22T03:17:46.767Z,37.00
2023-02-22T03:20:23.511Z,33.30
2023-02-22T03:22:59.396Z,37.83
2023-02-22T03:28:04.631Z,30.10
2023-02-22T03:30:39.291Z,34.30
2023-02-22T03:33:15.612Z,31.77
2023-02-22T03:35:49.511Z,31.88
2023-02-22T03:38:21.391Z,29.75
2023-02-22T03:40:52.377Z,29.05
2023-02-22T03:43:26.166Z,30.25
2023-02-22T03:45:59.470Z,30.50
2023-02-22T03:48:37.363Z,30.35
2023-02-22T03:51:08.459Z,31.80
2023-02-22T03:53:37.415Z,29.25
2023-02-22T03:56:10.498Z,30.38
2023-02-22T03:58:40.633Z,31.27
2023-02-22T04:01:08.707Z,28.50
2023-02-22T04:03:36.522Z,30.73
2023-02-22T04:06:05.278Z,30.20
2023-02-22T04:08:35.233Z,29.55
2023-02-22T04:11:03.685Z,28.02
2023-02-22T04:13:32.431Z,28.05
2023-02-22T04:16:00.817Z,30.13
2023-02-22T04:18:28.719Z,29.92
2023-02-22T04:20:57.124Z,25.13
2023-02-22T04:23:37.084Z,29.60
2023-02-22T04:26:05.924Z,29.13
2023-02-22T04:28:34.002Z,28.40
2023-02-22T04:31:14.763Z,27.10
2023-02-22T04:33:42.912Z,29.58
2023-02-22T04:36:16.004Z,27.30
2023-02-22T04:38:46.281Z,25.50
2023-02-22T04:41:14.782Z,27.70
2023-02-22T04:43:42.891Z,26.77
2023-02-22T04:46:29.523Z,24.70
2023-02-22T04:48:58.706Z,24.58
2023-02-22T04:51:29.747Z,22.92
2023-02-22T04:54:02.871Z,22.20
2023-02-22T04:56:33.120Z,22.50
2023-02-22T04:59:01.075Z,21.83
2023-02-22T05:01:33.572Z,25.70
2023-02-22T05:04:04.027Z,22.60
2023-02-22T05:06:32.132Z,24.35
2023-02-22T05:09:00.028Z,25.83
2023-02-22T05:11:29.278Z,26.05
2023-02-22T05:13:57.336Z,25.35
2023-02-22T05:16:25.333Z,26.10
2023-02-22T05:18:53.424Z,26.25
2023-02-22T05:21:21.415Z,27.50
2023-02-22T05:23:49.423Z,25.20
2023-02-22T05:26:17.452Z,26.33
2023-02-22T05:28:46.727Z,26.90
2023-02-22T05:31:14.835Z,26.58
2023-02-22T05:33:43.080Z,26.17
2023-02-22T05:36:11.489Z,26.13
2023-02-22T05:38:43.243Z,25.98
2023-02-22T05:41:12.370Z,28.58
2023-02-22T05:43:40.520Z,26.02
2023-02-22T05:46:09.912Z,25.70
2023-02-22T05:48:39.343Z,26.83
2023-02-22T05:51:09.648Z,29.42
2023-02-22T05:53:37.872Z,25.95
2023-02-22T05:56:06.467Z,30.73
2023-02-22T05:58:34.386Z,29.08
2023-02-22T06:01:03.432Z,25.63
2023-02-22T06:03:32.905Z,32.05
2023-02-22T06:06:00.816Z,26.98
2023-02-22T06:08:28.667Z,29.15
2023-02-22T06:10:56.562Z,27.77
2023-02-22T06:13:24.408Z,24.77
2023-02-22T06:15:52.261Z,27.08
2023-02-22T06:18:20.392Z,27.63
2023-02-22T06:20:50.845Z,21.10
2023-02-22T06:23:18.935Z,26.08
2023-02-22T06:25:46.834Z,23.25
2023-02-22T06:28:15.657Z,23.10
2023-02-22T06:30:43.773Z,26.50
2023-02-22T06:33:12.328Z,25.13
2023-02-22T06:35:40.289Z,25.02
2023-02-22T06:38:10.147Z,24.00
2023-02-22T06:40:38.031Z,27.42
2023-02-22T06:43:06.006Z,28.35
2023-02-22T06:45:33.973Z,30.52
2023-02-22T06:48:01.825Z,26.83
2023-02-22T06:50:31.634Z,28.73
2023-02-22T06:53:00.068Z,30.48
2023-02-22T06:55:31.645Z,27.30
2023-02-22T06:58:00.045Z,29.90
2023-02-22T07:00:30.002Z,29.92
2023-02-22T07:02:59.251Z,29.25
2023-02-22T07:05:28.771Z,30.52
2023-02-22T07:08:03.475Z,32.28
2023-02-22T07:10:33.935Z,35.35
2023-02-22T07:13:02.268Z,28.17
2023-02-22T07:15:32.590Z,31.23
2023-02-22T07:18:00.855Z,32.22
2023-02-22T07:20:31.013Z,32.03
2023-02-22T07:22:58.868Z,32.20
2023-02-22T07:25:27.241Z,33.58
2023-02-22T07:27:56.556Z,32.88
2023-02-22T07:30:27.988Z,33.95
2023-02-22T07:32:56.500Z,27.33
2023-02-22T07:35:26.625Z,30.02
2023-02-22T07:37:55.955Z,26.52
2023-02-22T07:40:25.361Z,30.70
2023-02-22T07:42:57.138Z,29.33
2023-02-22T07:45:26.620Z,27.55
2023-02-22T07:47:55.139Z,27.42
2023-02-22T07:50:27.488Z,29.83
2023-02-22T07:52:58.298Z,28.70
2023-02-22T07:55:28.292Z,27.98
2023-02-22T07:57:59.677Z,28.58
2023-02-22T08:00:29.618Z,28.58
2023-02-22T08:02:57.995Z,27.88
2023-02-22T08:05:27.979Z,27.83
2023-02-22T08:07:55.813Z,24.25
2023-02-22T08:10:25.596Z,25.05
2023-02-22T08:12:54.341Z,25.38
2023-02-22T08:15:28.462Z,24.05
2023-02-22T08:17:57.387Z,25.23
2023-02-22T08:20:25.740Z,22.63
2023-02-22T08:22:54.010Z,29.13
2023-02-22T08:25:25.283Z,24.17
2023-02-22T08:27:58.629Z,22.60
2023-02-22T08:30:29.111Z,23.75
2023-02-22T08:32:58.097Z,23.80
2023-02-22T08:35:27.493Z,24.67
2023-02-22T08:37:58.556Z,25.65
2023-02-22T08:40:29.222Z,23.20
2023-02-22T08:42:57.086Z,22.52
2023-02-22T08:45:25.257Z,22.38
2023-02-22T08:47:54.503Z,24.25
2023-02-22T08:50:24.593Z,26.27
2023-02-22T08:52:53.213Z,20.23
2023-02-22T08:55:22.505Z,19.58
2023-02-22T08:57:51.805Z,22.52
2023-02-22T09:02:48.921Z,19.02
2023-02-22T09:05:18.341Z,23.90
2023-02-22T09:07:46.549Z,22.17
2023-02-22T09:10:17.825Z,20.55
2023-02-22T09:12:45.764Z,20.20
2023-02-22T09:15:13.913Z,21.20
2023-02-22T09:17:41.863Z,22.80
2023-02-22T09:20:12.291Z,24.13
2023-02-22T09:22:41.815Z,24.73
2023-02-22T09:25:16.757Z,21.08
2023-02-22T09:30:19.180Z,20.10
2023-02-22T09:32:47.348Z,20.35
2023-02-22T09:35:15.393Z,19.35
2023-02-22T09:37:45.226Z,19.85
2023-02-22T09:40:24.823Z,19.13
2023-02-22T09:43:04.878Z,18.65
2023-02-22T09:45:38.794Z,20.05
2023-02-22T09:48:21.262Z,17.95
2023-02-22T09:50:52.525Z,16.45
2023-02-22T09:53:30.308Z,18.50
2023-02-22T09:56:03.515Z,18.02
2023-02-22T09:58:34.384Z,19.15
2023-02-22T10:01:19.837Z,19.65
2023-02-22T10:03:54.502Z,17.88
2023-02-22T10:06:25.585Z,17.83
2023-02-22T10:09:00.916Z,15.07
2023-02-22T10:11:42.602Z,16.15
2023-02-22T10:14:30.746Z,21.08
2023-02-22T10:17:06.210Z,16.65
2023-02-22T10:22:37.286Z,17.83
2023-02-22T10:25:13.758Z,17.50
2023-02-22T10:27:47.839Z,17.40
2023-02-22T10:30:24.907Z,19.55
2023-02-22T10:32:59.737Z,16.98
2023-02-22T10:35:30.876Z,15.48
2023-02-22T10:38:05.340Z,18.95
2023-02-22T10:40:34.740Z,18.77
2023-02-22T10:43:04.960Z,17.25
2023-02-22T10:45:35.854Z,19.05
2023-02-22T10:48:11.484Z,17.67
2023-02-22T10:50:41.496Z,18.70
2023-02-22T10:53:10.529Z,14.48
2023-02-22T10:56:10.142Z,13.20
2023-02-22T10:58:47.950Z,14.40
2023-02-22T11:01:26.177Z,14.30
2023-02-22T11:03:59.153Z,15.27
2023-02-22T11:06:27.470Z,12.27
2023-02-22T11:09:06.485Z,9.98
2023-02-22T11:11:35.813Z,12.20
2023-02-22T11:14:06.602Z,11.68
2023-02-22T11:16:38.249Z,10.80
2023-02-22T11:19:14.075Z,11.45
2023-02-22T11:21:42.384Z,11.38
2023-02-22T11:24:12.637Z,11.57
2023-02-22T11:26:45.060Z,10.32
2023-02-22T11:29:21.307Z,10.00
2023-02-22T11:31:50.351Z,12.30
2023-02-22T11:34:31.518Z,10.98
2023-02-22T11:37:17.712Z,14.93
2023-02-22T11:39:46.654Z,9.23
2023-02-22T11:42:27.608Z,9.75
2023-02-22T11:45:10.923Z,11.27
2023-02-22T11:47:49.413Z,10.70
2023-02-22T11:50:28.879Z,11.15
2023-02-22T11:53:10.135Z,10.45
2023-02-22T11:55:46.847Z,11.20
2023-02-22T11:58:34.318Z,11.65
2023-02-22T12:01:10.087Z,9.18
2023-02-22T12:04:16.102Z,10.73
2023-02-22T12:06:52.008Z,13.10
2023-02-22T12:09:27.301Z,9.88
2023-02-22T12:12:07.516Z,10.63
2023-02-22T12:14:45.065Z,9.65
2023-02-22T12:17:24.490Z,11.10
2023-02-22T12:19:58.761Z,10.20
2023-02-22T12:22:30.591Z,11.75
2023-02-22T12:25:09.484Z,9.52
2023-02-22T12:27:42.870Z,11.70
2023-02-22T12:30:19.191Z,10.10
2023-02-22T12:32:51.853Z,11.00
2023-02-22T12:35:24.690Z,11.10
2023-02-22T12:38:01.826Z,11.45
2023-02-22T12:40:36.536Z,11.45
2023-02-22T12:43:11.935Z,10.32
2023-02-22T12:48:27.381Z,9.75
2023-02-22T12:50:59.260Z,10.23
2023-02-22T12:53:32.353Z,11.02
2023-02-22T12:56:16.668Z,10.60
2023-02-22T12:58:50.819Z,10.75
2023-02-22T13:01:23.757Z,13.63
2023-02-22T13:03:51.829Z,10.85
2023-02-22T13:06:31.207Z,10.85
2023-02-22T13:09:11.298Z,12.50
2023-02-22T13:11:44.724Z,9.55
2023-02-22T13:14:30.081Z,10.98
2023-02-22T13:17:06.990Z,10.15
2023-02-22T13:19:44.141Z,11.13
2023-02-22T13:22:20.082Z,11.23
2023-02-22T13:24:59.619Z,12.07
2023-02-22T13:27:33.020Z,11.90
2023-02-22T13:30:02.515Z,11.38
2023-02-22T13:32:47.970Z,13.20
2023-02-22T13:35:27.464Z,10.68
2023-02-22T13:38:16.618Z,13.15
2023-02-22T13:41:12.858Z,11.45
2023-02-22T13:44:07.947Z,12.57
2023-02-22T13:46:50.819Z,16.38
2023-02-22T13:49:48.164Z,12.45
2023-02-22T13:52:21.215Z,10.77
2023-02-22T13:54:54.551Z,10.65
2023-02-22T13:57:25.761Z,12.63
2023-02-22T14:00:24.415Z,10.18
2023-02-22T14:03:06.808Z,10.65
2023-02-22T14:05:50.947Z,9.77
2023-02-22T14:08:43.791Z,12.10
2023-02-22T14:11:57.248Z,9.57
2023-02-22T14:14:25.772Z,11.82
2023-02-22T14:17:23.903Z,12.70
2023-02-22T14:20:20.860Z,10.10
2023-02-22T14:22:53.163Z,10.88
2023-02-22T14:25:37.479Z,9.32
2023-02-22T14:28:07.599Z,10.55
2023-02-22T14:30:38.864Z,11.88
2023-02-22T14:33:42.070Z,14.18
2023-02-22T14:36:11.284Z,14.07
2023-02-22T14:38:41.961Z,11.85
2023-02-22T14:41:10.275Z,10.45
2023-02-22T14:43:39.977Z,11.25
2023-02-22T14:46:13.600Z,10.82
2023-02-22T14:48:42.980Z,14.48
2023-02-22T14:51:21.937Z,10.45
2023-02-22T14:53:55.045Z,13.55
2023-02-22T14:56:26.303Z,17.80
2023-02-22T14:59:00.228Z,13.00
2023-02-22T15:01:47.342Z,12.25
2023-02-22T15:04:23.030Z,12.40
2023-02-22T15:06:51.571Z,13.43
2023-02-22T15:09:27.658Z,11.43
2023-02-22T15:12:14.709Z,12.52
2023-02-22T15:14:47.571Z,12.00
2023-02-22T15:17:20.845Z,11.73
2023-02-22T15:19:50.079Z,11.68
2023-02-22T15:22:23.577Z,13.18
2023-02-22T15:25:00.283Z,11.45
2023-02-22T15:27:29.263Z,11.00
2023-02-22T15:30:04.391Z,10.88
2023-02-22T15:32:36.275Z,9.48
2023-02-22T15:35:16.516Z,12.10
2023-02-22T15:37:45.492Z,15.55
2023-02-22T15:40:20.878Z,11.40
2023-02-22T15:42:50.397Z,13.75
2023-02-22T15:45:21.028Z,14.68
2023-02-22T15:47:50.852Z,11.35
2023-02-22T15:50:23.661Z,12.52
2023-02-22T15:52:57.994Z,14.05
2023-02-22T15:55:30.834Z,13.57
2023-02-22T15:58:02.230Z,13.90
2023-02-22T16:00:36.935Z,14.25
2023-02-22T16:03:06.167Z,14.40
2023-02-22T16:05:40.200Z,15.90
2023-02-22T16:08:16.690Z,11.50
2023-02-22T16:10:54.279Z,14.50
2023-02-22T16:13:32.960Z,13.05
2023-02-22T16:16:03.125Z,13.15
2023-02-22T16:18:34.399Z,13.70
2023-02-22T16:21:08.060Z,14.02
2023-02-22T16:23:45.854Z,13.93
2023-02-22T16:26:28.636Z,14.55
2023-02-22T16:28:58.890Z,13.45
2023-02-22T16:31:28.538Z,13.98
2023-02-22T16:33:56.550Z,13.68
2023-02-22T16:36:38.686Z,13.57
2023-02-22T16:39:08.395Z,14.98
2023-02-22T16:41:37.723Z,16.48
2023-02-22T16:44:07.654Z,12.77
2023-02-22T16:46:36.660Z,14.77
2023-02-22T16:49:05.017Z,20.60
2023-02-22T16:51:39.799Z,19.83
2023-02-22T16:54:12.408Z,16.70
2023-02-22T16:56:42.480Z,15.02
2023-02-22T16:59:15.006Z,17.35
2023-02-22T17:01:43.442Z,16.90
2023-02-22T17:04:15.859Z,15.35
2023-02-22T17:06:44.116Z,13.40
2023-02-22T17:09:11.971Z,17.25
2023-02-22T17:11:41.365Z,14.70
2023-02-22T17:14:09.701Z,19.65
2023-02-22T17:16:37.970Z,16.10
2023-02-22T17:19:11.258Z,15.30
2023-02-22T17:21:40.164Z,11.20
2023-02-22T17:24:08.140Z,17.48
2023-02-22T17:26:37.111Z,13.02
2023-02-22T17:29:06.429Z,15.70
2023-02-22T17:31:34.978Z,15.35
2023-02-22T17:34:04.985Z,16.88
2023-02-22T17:36:34.210Z,15.10
2023-02-22T17:39:02.970Z,16.88
2023-02-22T17:41:30.886Z,20.92
2023-02-22T17:43:59.049Z,23.70
2023-02-22T17:46:28.293Z,17.45
2023-02-22T17:48:56.177Z,20.67
2023-02-22T17:51:26.253Z,22.30
2023-02-22T17:53:54.344Z,27.20
2023-02-22T17:56:22.667Z,22.35
2023-02-22T17:58:54.099Z,20.85
2023-02-22T18:01:27.108Z,46.15
2023-02-22T18:03:58.573Z,30.05
2023-02-22T18:06:28.569Z,26.98
2023-02-22T18:08:57.860Z,27.88
2023-02-22T18:11:27.494Z,28.70
2023-02-22T18:13:55.869Z,30.17
2023-02-22T18:16:25.461Z,28.80
2023-02-22T18:18:54.680Z,26.17
2023-02-22T18:21:26.690Z,27.30
2023-02-22T18:23:55.168Z,26.80
2023-02-22T18:26:25.320Z,23.08
2023-02-22T18:28:54.070Z,27.58
2023-02-22T18:31:23.465Z,24.40
2023-02-22T18:33:53.327Z,23.25
2023-02-22T18:36:23.778Z,23.75
2023-02-22T18:38:54.138Z,24.67
2023-02-22T18:41:25.631Z,22.33
2023-02-22T18:43:55.184Z,21.50
2023-02-22T18:46:25.205Z,22.13
2023-02-22T18:48:55.488Z,21.02
2023-02-22T18:51:25.716Z,18.73
2023-02-22T18:53:59.734Z,29.27
2023-02-22T18:56:30.118Z,25.05
2023-02-22T18:59:01.053Z,23.00
2023-02-22T19:01:29.699Z,24.65
2023-02-22T19:03:57.542Z,20.88
2023-02-22T19:06:26.847Z,21.67
2023-02-22T19:08:54.711Z,23.95
2023-02-22T19:11:24.517Z,21.75
2023-02-22T19:13:55.670Z,21.95
2023-02-22T19:16:25.243Z,25.65
2023-02-22T19:18:57.289Z,20.58
2023-02-22T19:21:28.538Z,22.02
2023-02-22T19:26:30.125Z,24.25
2023-02-22T19:28:59.998Z,20.67
2023-02-22T19:31:31.554Z,23.77
2023-02-22T19:34:01.886Z,24.10
2023-02-22T19:36:31.438Z,22.00
2023-02-22T19:39:01.558Z,19.13
2023-02-22T19:41:30.201Z,23.45
2023-02-22T19:43:58.814Z,21.73
2023-02-22T19:46:26.875Z,20.48
2023-02-22T19:48:56.399Z,19.75
2023-02-22T19:51:29.363Z,22.85
2023-02-22T19:53:59.952Z,22.25
2023-02-22T19:56:28.437Z,22.77
2023-02-22T19:58:58.278Z,20.60
2023-02-22T20:01:29.117Z,22.42
2023-02-22T20:03:59.904Z,29.80
2023-02-22T20:06:31.981Z,40.08
2023-02-22T20:09:02.528Z,31.60
2023-02-22T20:11:30.457Z,30.40
2023-02-22T20:13:58.345Z,30.00
2023-02-22T20:16:26.880Z,28.02
2023-02-22T20:18:56.013Z,29.90
2023-02-22T20:21:30.716Z,28.33
2023-02-22T20:23:59.346Z,24.17
2023-02-22T20:26:31.021Z,23.52
2023-02-22T20:29:00.310Z,22.30
2023-02-22T20:31:29.571Z,25.50
2023-02-22T20:33:59.831Z,24.38
2023-02-22T20:36:28.511Z,23.30
2023-02-22T20:38:58.513Z,26.60
2023-02-22T20:41:29.903Z,22.35
2023-02-22T20:43:58.301Z,22.67
2023-02-22T20:46:28.260Z,24.35
2023-02-22T20:48:57.036Z,21.55
2023-02-22T20:51:25.496Z,23.77
2023-02-22T20:53:54.139Z,23.25
2023-02-22T20:56:24.681Z,25.08
2023-02-22T20:58:53.991Z,22.85
2023-02-22T21:01:22.535Z,19.58
2023-02-22T21:03:51.464Z,21.42
2023-02-22T21:06:21.680Z,20.08
2023-02-22T21:09:21.907Z,22.17
2023-02-22T21:11:50.411Z,22.90
2023-02-22T21:14:20.223Z,17.25
2023-02-22T21:16:49.581Z,20.40
2023-02-22T21:19:25.502Z,18.30
2023-02-22T21:21:55.912Z,18.75
2023-02-22T21:24:24.549Z,21.98
2023-02-22T21:26:53.030Z,20.77
2023-02-22T21:29:44.227Z,18.30
2023-02-22T21:32:13.737Z,23.58
2023-02-22T21:34:42.028Z,27.05
2023-02-22T21:37:09.882Z,24.52
2023-02-22T21:39:38.777Z,20.77
2023-02-22T21:42:07.306Z,25.85
2023-02-22T21:44:35.273Z,24.60
2023-02-22T21:47:04.474Z,28.70
2023-02-22T21:49:32.370Z,26.48
2023-02-22T21:52:00.270Z,24.48
2023-02-22T21:54:28.742Z,28.85
2023-02-22T21:56:56.717Z,28.73
2023-02-22T21:59:24.830Z,29.05
2023-02-22T22:01:55.820Z,30.52
2023-02-22T22:04:27.945Z,29.20
2023-02-22T22:06:57.663Z,29.67
2023-02-22T22:09:29.103Z,32.15
2023-02-22T22:11:59.083Z,27.55
2023-02-22T22:14:28.101Z,27.65
2023-02-22T22:16:58.672Z,31.70
2023-02-22T22:19:29.118Z,31.88
2023-02-22T22:21:57.453Z,30.20
2023-02-22T22:24:25.599Z,30.23
2023-02-22T22:26:55.338Z,31.65
2023-02-22T22:29:24.612Z,31.13
2023-02-22T22:31:52.936Z,31.98
2023-02-22T22:34:24.283Z,34.40
2023-02-22T22:36:53.579Z,35.65
2023-02-22T22:39:21.647Z,32.28
2023-02-22T22:41:49.594Z,33.25
2023-02-22T22:44:22.091Z,35.30
2023-02-22T22:46:53.513Z,34.55
2023-02-22T22:49:23.530Z,33.92
2023-02-22T22:51:53.470Z,33.00
2023-02-22T22:54:21.653Z,35.85
2023-02-22T22:56:49.540Z,37.05
2023-02-22T22:59:17.959Z,37.08
2023-02-22T23:01:45.899Z,34.38
2023-02-22T23:04:16.831Z,34.03
2023-02-22T23:06:46.634Z,36.05
2023-02-22T23:09:18.958Z,38.13
2023-02-22T23:11:50.573Z,36.35
2023-02-22T23:14:21.275Z,37.50
2023-02-22T23:16:50.134Z,35.78
2023-02-22T23:19:19.155Z,37.10
2023-02-22T23:21:47.913Z,36.97
2023-02-22T23:24:20.867Z,37.55
2023-02-22T23:26:49.478Z,38.25
2023-02-22T23:29:18.951Z,42.72
2023-02-22T23:31:48.354Z,36.45
2023-02-22T23:34:17.178Z,41.10
2023-02-22T23:36:45.152Z,37.05
2023-02-22T23:39:14.212Z,39.92
2023-02-22T23:41:43.808Z,40.22
2023-02-22T23:44:17.585Z,38.85
2023-02-22T23:46:48.203Z,38.25
2023-02-22T23:49:20.053Z,39.35
2023-02-22T23:51:48.209Z,41.13
2023-02-22T23:54:19.205Z,39.28
2023-02-22T23:56:56.318Z,38.15
2023-02-22T23:59:26.012Z,36.13
